Ginga — JJ4054 — position and weather

sailwx.info

Track history (hours):
 
Tides and Currents Weather Stations Pressure Air Temp Water Temp Dewpoint Dewpoint Depression Visibility Wind Speed Wind Dir Waves Ship Positions

Ginga

Last reported at 2018-Feb-21 03:10 UTC. Time now 2018-Feb-21 19:25 UTC.
Position N 34°39' E 135°09'.

Length 28 m; draft 1.6 m.

Type: Other ship. MMSI: 431301704.

Date/timePositionNaut miles runAvg speedWind from/ knotsBaromVisibWave heightAir tempDewpointWater temp
2018-Feb-21 03:10N 34°39' E 135°09'1 4.3
2018-Feb-21 03:01N 34°38' E 135°10'612.5
2018-Feb-21 02:31N 34°36' E 135°03'510.6
2018-Feb-21 02:01N 34°36' E 134°56'3 7.0
2018-Feb-21 01:30N 34°38' E 134°60'3 5.7
2018-Feb-21 01:00N 34°38' E 135°03'0 0.0
2018-Feb-20 11:42N 34°38' E 135°03'210.8
2018-Feb-20 11:30N 34°38' E 135°01'816.6
2018-Feb-20 11:00N 34°39' E 134°51'917.7
2018-Feb-20 10:30N 34°42' E 134°40'918.0
2018-Feb-20 10:00N 34°43' E 134°30'0 0.6
2018-Feb-20 09:23N 34°43' E 134°30'3 6.7
2018-Feb-20 08:59N 34°43' E 134°33'3 6.7
2018-Feb-20 08:30N 34°42' E 134°37'4 7.2
2018-Feb-20 08:00N 34°41' E 134°41'3 6.7
2018-Feb-20 07:30N 34°40' E 134°45'3 5.8
2018-Feb-20 07:00N 34°39' E 134°48'2 3.9
2018-Feb-20 06:30N 34°38' E 134°50'1 2.9
2018-Feb-20 06:00N 34°38' E 134°52'2 4.5
2018-Feb-20 05:30N 34°37' E 134°55'3 6.0
2018-Feb-20 05:01N 34°37' E 134°58'2 4.4
2018-Feb-20 04:31N 34°37' E 135°01'3 5.9
2018-Feb-20 04:00N 34°36' E 135°04'3 6.0
2018-Feb-20 03:31N 34°35' E 135°08'2 3.3
2018-Feb-20 03:01N 34°34' E 135°08'2 4.7
2018-Feb-20 02:30N 34°31' E 135°08'2 4.0
2018-Feb-20 02:00N 34°30' E 135°08'3 5.0
2018-Feb-20 01:31N 34°27' E 135°06'2 4.4
2018-Feb-20 01:01N 34°25' E 135°05'2 5.0
2018-Feb-20 00:30N 34°23' E 135°04'3 5.1
2018-Feb-20 00:01N 34°21' E 135°02'3 6.3
2018-Feb-19 23:30N 34°18' E 134°60'3 5.9
2018-Feb-19 23:00N 34°15' E 134°59'2 4.7
2018-Feb-19 22:30N 34°13' E 134°59'2 4.7
2018-Feb-19 22:01N 34°11' E 134°59'0 0.9
2018-Feb-19 21:30N 34°11' E 134°60'815.8
2018-Feb-19 21:00N 34°19' E 134°59'815.8
2018-Feb-19 20:30N 34°26' E 135°03'816.5
2018-Feb-19 20:01N 34°33' E 135°07'612.5
2018-Feb-19 19:30N 34°39' E 135°10'0 0.0
2018-Feb-18 21:05N 34°39' E 135°09'0 5.6
2018-Feb-18 21:00N 34°39' E 135°10'714.5
2018-Feb-18 20:30N 34°38' E 135°01'1 1.6
2018-Feb-18 20:00N 34°38' E 135°00'4 8.2
2018-Feb-18 19:30N 34°35' E 135°05'3 5.6
2018-Feb-18 19:00N 34°34' E 135°08'510.5
2018-Feb-18 18:30N 34°39' E 135°10'0 0.0
2018-Feb-18 03:34N 34°39' E 135°09'0 0.2
2018-Feb-18 03:30N 34°39' E 135°09'612.6
2018-Feb-18 03:01N 34°36' E 135°03'510.8
2018-Feb-18 02:30N 34°36' E 134°56'1 2.3
2018-Feb-18 02:00N 34°35' E 134°57'0 0.8
2018-Feb-18 01:29N 34°35' E 134°57'3 6.2
2018-Feb-18 01:00N 34°38' E 134°60'611.4
2018-Feb-18 00:30N 34°35' E 135°06'4 8.3
2018-Feb-18 00:00N 34°38' E 135°10'1 2.5
2018-Feb-17 23:31N 34°39' E 135°09'0 0.0
2018-Feb-16 08:37N 34°39' E 135°10'112.6
2018-Feb-16 08:30N 34°38' E 135°09'917.5
2018-Feb-16 08:00N 34°30' E 135°04'917.7
2018-Feb-16 07:30N 34°22' E 134°59'5 9.1
2018-Feb-16 07:00N 34°18' E 134°59'714.6
2018-Feb-16 06:31N 34°25' E 135°01'713.9
2018-Feb-16 06:00N 34°31' E 135°05'3 6.1
2018-Feb-16 05:30N 34°34' E 135°05'612.4
2018-Feb-16 05:00N 34°37' E 134°58'510.1
2018-Feb-16 04:30N 34°35' E 134°53'612.1
2018-Feb-16 04:00N 34°33' E 134°46'611.4
2018-Feb-16 03:30N 34°37' E 134°42'813.4
2018-Feb-16 02:54N 34°45' E 134°41'1 1.4
2018-Feb-16 02:25N 34°46' E 134°41'1 1.9
2018-Feb-16 01:58N 34°46' E 134°42'1 0.0
2018-Feb-15 03:53N 34°46' E 134°42'1 2.0
2018-Feb-15 03:26N 34°46' E 134°41'3 7.0
2018-Feb-15 03:01N 34°43' E 134°41'4 8.3
2018-Feb-15 02:30N 34°39' E 134°42'611.9
2018-Feb-15 02:00N 34°34' E 134°45'715.0
2018-Feb-15 01:30N 34°36' E 134°54'713.5
2018-Feb-15 01:00N 34°37' E 135°02'510.1
2018-Feb-15 00:30N 34°35' E 135°08'4 8.6
2018-Feb-15 00:00N 34°30' E 135°08'612.5
2018-Feb-14 23:30N 34°25' E 135°05'612.1
2018-Feb-14 23:01N 34°20' E 135°01'713.8
2018-Feb-14 22:31N 34°13' E 134°60'2 4.0
2018-Feb-14 22:00N 34°11' E 134°59'1 1.5
2018-Feb-14 21:30N 34°11' E 134°59'714.3
2018-Feb-14 21:00N 34°18' E 134°57'4 7.0
2018-Feb-14 20:30N 34°21' E 134°54'0 0.0
2018-Feb-14 06:43N 34°21' E 134°54'2 9.5
2018-Feb-14 06:30N 34°20' E 134°56'3 5.5
2018-Feb-14 06:00N 34°18' E 134°58'714.2
2018-Feb-14 05:31N 34°24' E 135°02'713.9
2018-Feb-14 05:00N 34°31' E 135°06'4 8.2
2018-Feb-14 04:30N 34°34' E 135°08'510.2
2018-Feb-14 04:01N 34°36' E 135°02'815.1
2018-Feb-14 03:31N 34°35' E 134°53'815.5
2018-Feb-14 03:00N 34°34' E 134°44'815.0
2018-Feb-14 02:28N 34°41' E 134°41'5 8.3
2018-Feb-14 01:54N 34°46' E 134°41'0 0.1
2018-Feb-14 01:27N 34°46' E 134°41'1 2.1
2018-Feb-14 01:00N 34°46' E 134°42'0 0.0
2018-Feb-13 03:45N 34°46' E 134°42'1 2.8
2018-Feb-13 03:24N 34°46' E 134°41'3 5.5
2018-Feb-13 02:53N 34°43' E 134°41'3 7.2
2018-Feb-13 02:30N 34°41' E 134°41'611.4
2018-Feb-13 02:00N 34°35' E 134°42'613.0
2018-Feb-13 01:30N 34°34' E 134°50'714.6
2018-Feb-13 01:01N 34°37' E 134°58'713.2
2018-Feb-13 00:31N 34°36' E 135°06'3 5.7
2018-Feb-13 00:01N 34°35' E 135°09'510.5
2018-Feb-12 23:31N 34°30' E 135°07'612.7
2018-Feb-12 23:00N 34°25' E 135°03'612.5
2018-Feb-12 22:30N 34°19' E 135°00'612.2
2018-Feb-12 22:00N 34°13' E 134°59'1 2.4
2018-Feb-12 21:30N 34°12' E 134°59'713.7
2018-Feb-12 21:00N 34°18' E 134°57'4 7.1
2018-Feb-12 20:30N 34°21' E 134°54'0 0.0
2018-Feb-12 05:37N 34°21' E 134°54'1 4.8
2018-Feb-12 05:31N 34°21' E 134°54'917.2
2018-Feb-12 05:00N 34°29' E 134°60'815.8
2018-Feb-12 04:30N 34°37' E 135°00'1 2.1
2018-Feb-12 04:00N 34°37' E 135°02'4 8.3
2018-Feb-12 03:30N 34°36' E 135°07'3 6.1
2018-Feb-12 03:00N 34°37' E 135°10'2 3.3
2018-Feb-12 02:30N 34°39' E 135°09'0 0.0
2018-Feb-12 02:00N 34°39' E 135°09'0 0.0
2018-Feb-11 03:54N 34°39' E 135°09'512.2
2018-Feb-11 03:30N 34°35' E 135°05'  
Track history (hours):
 
Tides and Currents Weather Stations Pressure Air Temp Water Temp Dewpoint Dewpoint Depression Visibility Wind Speed Wind Dir Waves Ship Positions

Ginga

Last reported at 2018-Feb-21 03:10 UTC. Time now 2018-Feb-21 19:25 UTC.
Position N 34°39' E 135°09'.

Length 28 m; draft 1.6 m.

Type: Other ship. MMSI: 431301704.

Date/timePositionNaut miles runAvg speedWind from/ knotsBaromVisibWave heightAir tempDewpointWater temp
2018-Feb-21 03:10N 34°39' E 135°09'1 4.3
2018-Feb-21 03:01N 34°38' E 135°10'612.5
2018-Feb-21 02:31N 34°36' E 135°03'510.6
2018-Feb-21 02:01N 34°36' E 134°56'3 7.0
2018-Feb-21 01:30N 34°38' E 134°60'3 5.7
2018-Feb-21 01:00N 34°38' E 135°03'0 0.0
2018-Feb-20 11:42N 34°38' E 135°03'210.8
2018-Feb-20 11:30N 34°38' E 135°01'816.6
2018-Feb-20 11:00N 34°39' E 134°51'917.7
2018-Feb-20 10:30N 34°42' E 134°40'918.0
2018-Feb-20 10:00N 34°43' E 134°30'0 0.6
2018-Feb-20 09:23N 34°43' E 134°30'3 6.7
2018-Feb-20 08:59N 34°43' E 134°33'3 6.7
2018-Feb-20 08:30N 34°42' E 134°37'4 7.2
2018-Feb-20 08:00N 34°41' E 134°41'3 6.7
2018-Feb-20 07:30N 34°40' E 134°45'3 5.8
2018-Feb-20 07:00N 34°39' E 134°48'2 3.9
2018-Feb-20 06:30N 34°38' E 134°50'1 2.9
2018-Feb-20 06:00N 34°38' E 134°52'2 4.5
2018-Feb-20 05:30N 34°37' E 134°55'3 6.0
2018-Feb-20 05:01N 34°37' E 134°58'2 4.4
2018-Feb-20 04:31N 34°37' E 135°01'3 5.9
2018-Feb-20 04:00N 34°36' E 135°04'3 6.0
2018-Feb-20 03:31N 34°35' E 135°08'2 3.3
2018-Feb-20 03:01N 34°34' E 135°08'2 4.7
2018-Feb-20 02:30N 34°31' E 135°08'2 4.0
2018-Feb-20 02:00N 34°30' E 135°08'3 5.0
2018-Feb-20 01:31N 34°27' E 135°06'2 4.4
2018-Feb-20 01:01N 34°25' E 135°05'2 5.0
2018-Feb-20 00:30N 34°23' E 135°04'3 5.1
2018-Feb-20 00:01N 34°21' E 135°02'3 6.3
2018-Feb-19 23:30N 34°18' E 134°60'3 5.9
2018-Feb-19 23:00N 34°15' E 134°59'2 4.7
2018-Feb-19 22:30N 34°13' E 134°59'2 4.7
2018-Feb-19 22:01N 34°11' E 134°59'0 0.9
2018-Feb-19 21:30N 34°11' E 134°60'815.8
2018-Feb-19 21:00N 34°19' E 134°59'815.8
2018-Feb-19 20:30N 34°26' E 135°03'816.5
2018-Feb-19 20:01N 34°33' E 135°07'612.5
2018-Feb-19 19:30N 34°39' E 135°10'0 0.0
2018-Feb-18 21:05N 34°39' E 135°09'0 5.6
2018-Feb-18 21:00N 34°39' E 135°10'714.5
2018-Feb-18 20:30N 34°38' E 135°01'1 1.6
2018-Feb-18 20:00N 34°38' E 135°00'4 8.2
2018-Feb-18 19:30N 34°35' E 135°05'3 5.6
2018-Feb-18 19:00N 34°34' E 135°08'510.5
2018-Feb-18 18:30N 34°39' E 135°10'0 0.0
2018-Feb-18 03:34N 34°39' E 135°09'0 0.2
2018-Feb-18 03:30N 34°39' E 135°09'612.6
2018-Feb-18 03:01N 34°36' E 135°03'510.8
2018-Feb-18 02:30N 34°36' E 134°56'1 2.3
2018-Feb-18 02:00N 34°35' E 134°57'0 0.8
2018-Feb-18 01:29N 34°35' E 134°57'3 6.2
2018-Feb-18 01:00N 34°38' E 134°60'611.4
2018-Feb-18 00:30N 34°35' E 135°06'4 8.3
2018-Feb-18 00:00N 34°38' E 135°10'1 2.5
2018-Feb-17 23:31N 34°39' E 135°09'0 0.0
2018-Feb-16 08:37N 34°39' E 135°10'112.6
2018-Feb-16 08:30N 34°38' E 135°09'917.5
2018-Feb-16 08:00N 34°30' E 135°04'917.7
2018-Feb-16 07:30N 34°22' E 134°59'5 9.1
2018-Feb-16 07:00N 34°18' E 134°59'714.6
2018-Feb-16 06:31N 34°25' E 135°01'713.9
2018-Feb-16 06:00N 34°31' E 135°05'3 6.1
2018-Feb-16 05:30N 34°34' E 135°05'612.4
2018-Feb-16 05:00N 34°37' E 134°58'510.1
2018-Feb-16 04:30N 34°35' E 134°53'612.1
2018-Feb-16 04:00N 34°33' E 134°46'611.4
2018-Feb-16 03:30N 34°37' E 134°42'813.4
2018-Feb-16 02:54N 34°45' E 134°41'1 1.4
2018-Feb-16 02:25N 34°46' E 134°41'1 1.9
2018-Feb-16 01:58N 34°46' E 134°42'1 0.0
2018-Feb-15 03:53N 34°46' E 134°42'1 2.0
2018-Feb-15 03:26N 34°46' E 134°41'3 7.0
2018-Feb-15 03:01N 34°43' E 134°41'4 8.3
2018-Feb-15 02:30N 34°39' E 134°42'611.9
2018-Feb-15 02:00N 34°34' E 134°45'715.0
2018-Feb-15 01:30N 34°36' E 134°54'713.5
2018-Feb-15 01:00N 34°37' E 135°02'510.1
2018-Feb-15 00:30N 34°35' E 135°08'4 8.6
2018-Feb-15 00:00N 34°30' E 135°08'612.5
2018-Feb-14 23:30N 34°25' E 135°05'612.1
2018-Feb-14 23:01N 34°20' E 135°01'713.8
2018-Feb-14 22:31N 34°13' E 134°60'2 4.0
2018-Feb-14 22:00N 34°11' E 134°59'1 1.5
2018-Feb-14 21:30N 34°11' E 134°59'714.3
2018-Feb-14 21:00N 34°18' E 134°57'4 7.0
2018-Feb-14 20:30N 34°21' E 134°54'0 0.0
2018-Feb-14 06:43N 34°21' E 134°54'2 9.5
2018-Feb-14 06:30N 34°20' E 134°56'3 5.5
2018-Feb-14 06:00N 34°18' E 134°58'714.2
2018-Feb-14 05:31N 34°24' E 135°02'713.9
2018-Feb-14 05:00N 34°31' E 135°06'4 8.2
2018-Feb-14 04:30N 34°34' E 135°08'510.2
2018-Feb-14 04:01N 34°36' E 135°02'815.1
2018-Feb-14 03:31N 34°35' E 134°53'815.5
2018-Feb-14 03:00N 34°34' E 134°44'815.0
2018-Feb-14 02:28N 34°41' E 134°41'5 8.3
2018-Feb-14 01:54N 34°46' E 134°41'0 0.1
2018-Feb-14 01:27N 34°46' E 134°41'1 2.1
2018-Feb-14 01:00N 34°46' E 134°42'0 0.0
2018-Feb-13 03:45N 34°46' E 134°42'1 2.8
2018-Feb-13 03:24N 34°46' E 134°41'3 5.5
2018-Feb-13 02:53N 34°43' E 134°41'3 7.2
2018-Feb-13 02:30N 34°41' E 134°41'611.4
2018-Feb-13 02:00N 34°35' E 134°42'613.0
2018-Feb-13 01:30N 34°34' E 134°50'714.6
2018-Feb-13 01:01N 34°37' E 134°58'713.2
2018-Feb-13 00:31N 34°36' E 135°06'3 5.7
2018-Feb-13 00:01N 34°35' E 135°09'510.5
2018-Feb-12 23:31N 34°30' E 135°07'612.7
2018-Feb-12 23:00N 34°25' E 135°03'612.5
2018-Feb-12 22:30N 34°19' E 135°00'612.2
2018-Feb-12 22:00N 34°13' E 134°59'1 2.4
2018-Feb-12 21:30N 34°12' E 134°59'713.7
2018-Feb-12 21:00N 34°18' E 134°57'4 7.1
2018-Feb-12 20:30N 34°21' E 134°54'0 0.0
2018-Feb-12 05:37N 34°21' E 134°54'1 4.8
2018-Feb-12 05:31N 34°21' E 134°54'917.2
2018-Feb-12 05:00N 34°29' E 134°60'815.8
2018-Feb-12 04:30N 34°37' E 135°00'1 2.1
2018-Feb-12 04:00N 34°37' E 135°02'4 8.3
2018-Feb-12 03:30N 34°36' E 135°07'3 6.1
2018-Feb-12 03:00N 34°37' E 135°10'2 3.3
2018-Feb-12 02:30N 34°39' E 135°09'0 0.0
2018-Feb-12 02:00N 34°39' E 135°09'0 0.0
2018-Feb-11 03:54N 34°39' E 135°09'512.2
2018-Feb-11 03:30N 34°35' E 135°05'  

Dump ship's entire track history